createdAt,value
2022-11-09T00:01:28.634Z,11.05
2022-11-09T00:03:58.117Z,10.99
2022-11-09T00:06:26.701Z,10.94
2022-11-09T00:08:55.054Z,11.01
2022-11-09T00:11:23.328Z,11.05
2022-11-09T00:13:51.167Z,11.17
2022-11-09T00:16:21.216Z,11.18
2022-11-09T00:18:49.217Z,11.31
2022-11-09T00:21:25.016Z,11.31
2022-11-09T00:23:53.646Z,11.32
2022-11-09T00:26:21.435Z,11.32
2022-11-09T00:28:50.236Z,11.30
2022-11-09T00:31:21.268Z,11.48
2022-11-09T00:33:54.459Z,11.61
2022-11-09T00:36:23.612Z,11.62
2022-11-09T00:38:57.927Z,11.39
2022-11-09T00:41:27.179Z,11.60
2022-11-09T00:43:56.761Z,11.68
2022-11-09T00:46:25.242Z,11.67
2022-11-09T00:48:54.943Z,11.69
2022-11-09T00:51:22.790Z,11.71
2022-11-09T00:53:54.408Z,11.70
2022-11-09T00:56:22.407Z,11.65
2022-11-09T00:58:54.710Z,11.49
2022-11-09T01:01:22.978Z,11.48
2022-11-09T01:03:50.922Z,11.63
2022-11-09T01:06:21.626Z,11.60
2022-11-09T01:08:50.495Z,11.59
2022-11-09T01:11:20.006Z,11.62
2022-11-09T01:13:48.002Z,11.58
2022-11-09T01:16:20.265Z,11.46
2022-11-09T01:18:48.688Z,11.47
2022-11-09T01:21:17.137Z,11.55
2022-11-09T01:23:44.991Z,11.63
2022-11-09T01:26:14.661Z,11.64
2022-11-09T01:28:44.603Z,11.70
2022-11-09T01:31:14.974Z,11.60
2022-11-09T01:33:43.451Z,11.58
2022-11-09T01:36:17.648Z,11.52
2022-11-09T01:38:45.690Z,11.64
2022-11-09T01:41:28.354Z,11.59
2022-11-09T01:44:13.584Z,11.58
2022-11-09T01:46:53.458Z,11.58
2022-11-09T01:49:47.365Z,11.59
2022-11-09T01:52:29.360Z,11.66
2022-11-09T01:55:02.228Z,11.64
2022-11-09T01:57:37.278Z,11.65
2022-11-09T02:00:12.197Z,11.55
2022-11-09T02:03:07.793Z,11.48
2022-11-09T02:05:38.690Z,11.53
2022-11-09T02:08:08.708Z,11.72
2022-11-09T02:10:43.597Z,11.74
2022-11-09T02:13:13.546Z,11.52
2022-11-09T02:15:45.382Z,11.66
2022-11-09T02:18:14.427Z,11.80
2022-11-09T02:20:54.452Z,11.81
2022-11-09T02:23:25.981Z,11.72
2022-11-09T02:26:01.885Z,11.63
2022-11-09T02:28:31.702Z,11.68
2022-11-09T02:31:00.098Z,11.74
2022-11-09T02:33:27.779Z,11.77
2022-11-09T02:35:55.834Z,11.78
2022-11-09T02:38:23.661Z,11.79
2022-11-09T02:40:52.862Z,11.87
2022-11-09T02:43:20.863Z,11.83
2022-11-09T02:45:49.129Z,11.70
2022-11-09T02:48:17.188Z,11.54
2022-11-09T02:50:44.895Z,11.36
2022-11-09T02:53:12.683Z,11.24
2022-11-09T02:55:43.039Z,11.20
2022-11-09T02:58:10.940Z,11.24
2022-11-09T03:00:40.411Z,11.38
2022-11-09T03:03:08.366Z,11.33
2022-11-09T03:05:36.181Z,11.37
2022-11-09T03:08:04.346Z,11.37
2022-11-09T03:10:34.097Z,11.40
2022-11-09T03:13:02.042Z,11.40
2022-11-09T03:15:29.728Z,11.38
2022-11-09T03:17:57.492Z,11.46
2022-11-09T03:20:25.259Z,11.57
2022-11-09T03:22:57.411Z,11.65
2022-11-09T03:25:26.039Z,11.73
2022-11-09T03:28:06.137Z,11.77
2022-11-09T03:30:34.629Z,11.83
2022-11-09T03:33:05.027Z,11.88
2022-11-09T03:35:32.891Z,11.87
2022-11-09T03:38:00.874Z,11.89
2022-11-09T03:40:29.520Z,11.75
2022-11-09T03:42:57.743Z,11.78
2022-11-09T03:45:25.750Z,11.93
2022-11-09T03:47:57.000Z,12.09
2022-11-09T03:50:24.749Z,12.12
2022-11-09T03:52:52.871Z,12.17
2022-11-09T03:55:21.890Z,12.21
2022-11-09T03:57:49.901Z,12.21
2022-11-09T04:00:19.767Z,12.22
2022-11-09T04:02:48.347Z,12.29
2022-11-09T04:05:16.441Z,12.24
2022-11-09T04:07:52.812Z,12.21
2022-11-09T04:10:22.049Z,12.24
2022-11-09T04:12:50.099Z,12.21
2022-11-09T04:15:18.239Z,12.07
2022-11-09T04:17:54.809Z,12.03
2022-11-09T04:20:26.116Z,11.97
2022-11-09T04:22:58.941Z,12.03
2022-11-09T04:25:29.015Z,11.99
2022-11-09T04:27:57.440Z,11.94
2022-11-09T04:30:28.110Z,12.03
2022-11-09T04:32:57.443Z,12.08
2022-11-09T04:35:26.854Z,12.07
2022-11-09T04:38:05.654Z,11.96
2022-11-09T04:40:34.990Z,11.78
2022-11-09T04:43:05.266Z,11.82
2022-11-09T04:45:34.702Z,11.82
2022-11-09T04:48:05.900Z,11.60
2022-11-09T04:50:34.446Z,11.38
2022-11-09T04:53:11.024Z,11.58
2022-11-09T04:55:39.960Z,11.43
2022-11-09T04:58:08.118Z,11.58
2022-11-09T05:00:36.746Z,11.76
2022-11-09T05:03:05.891Z,11.65
2022-11-09T05:05:35.486Z,11.63
2022-11-09T05:08:05.955Z,11.67
2022-11-09T05:10:35.457Z,11.70
2022-11-09T05:13:06.536Z,11.82
2022-11-09T05:15:36.534Z,11.94
2022-11-09T05:18:05.883Z,11.94
2022-11-09T05:20:35.066Z,11.93
2022-11-09T05:23:21.788Z,11.97
2022-11-09T05:25:49.901Z,11.85
2022-11-09T05:28:17.780Z,11.86
2022-11-09T05:30:46.002Z,11.62
2022-11-09T05:33:14.790Z,11.64
2022-11-09T05:35:42.695Z,11.73
2022-11-09T05:38:10.863Z,11.78
2022-11-09T05:40:39.050Z,11.74
2022-11-09T05:43:11.618Z,11.80
2022-11-09T05:45:43.900Z,11.86
2022-11-09T05:48:17.793Z,11.76
2022-11-09T05:50:45.877Z,11.61
2022-11-09T05:53:18.922Z,11.63
2022-11-09T05:55:47.040Z,11.61
2022-11-09T05:58:15.437Z,11.58
2022-11-09T06:00:43.796Z,11.55
2022-11-09T06:03:13.965Z,11.45
2022-11-09T06:05:41.673Z,11.40
2022-11-09T06:08:13.557Z,11.27
2022-11-09T06:10:42.902Z,11.26
2022-11-09T06:13:12.220Z,11.26
2022-11-09T06:15:40.222Z,11.39
2022-11-09T06:18:08.605Z,11.44
2022-11-09T06:20:37.113Z,11.49
2022-11-09T06:23:07.519Z,11.51
2022-11-09T06:25:35.495Z,11.54
2022-11-09T06:28:04.191Z,11.60
2022-11-09T06:30:31.953Z,11.60
2022-11-09T06:33:01.440Z,11.60
2022-11-09T06:35:29.880Z,11.39
2022-11-09T06:37:59.206Z,11.42
2022-11-09T06:40:27.404Z,11.52
2022-11-09T06:42:59.580Z,11.54
2022-11-09T06:45:29.180Z,11.56
2022-11-09T06:47:58.377Z,11.70
2022-11-09T06:50:28.046Z,11.62
2022-11-09T06:53:05.441Z,11.49
2022-11-09T06:55:35.381Z,11.52
2022-11-09T06:58:08.532Z,11.56
2022-11-09T07:00:36.965Z,11.65
2022-11-09T07:03:04.721Z,11.63
2022-11-09T07:05:32.500Z,11.76
2022-11-09T07:08:00.423Z,11.86
2022-11-09T07:10:28.482Z,12.05
2022-11-09T07:12:58.163Z,12.14
2022-11-09T07:15:26.112Z,12.20
2022-11-09T07:17:57.560Z,12.35
2022-11-09T07:20:26.532Z,12.43
2022-11-09T07:22:55.674Z,12.62
2022-11-09T07:25:25.245Z,12.67
2022-11-09T07:27:53.546Z,12.67
2022-11-09T07:30:21.676Z,12.82
2022-11-09T07:35:38.801Z,13.19
2022-11-09T07:38:07.889Z,13.32
2022-11-09T07:40:36.136Z,13.32
2022-11-09T07:43:06.066Z,13.32
2022-11-09T07:45:35.541Z,13.40
2022-11-09T07:48:09.264Z,13.33
2022-11-09T07:50:39.768Z,13.40
2022-11-09T07:53:10.056Z,13.45
2022-11-09T07:55:37.765Z,13.58
2022-11-09T07:58:08.461Z,13.31
2022-11-09T08:00:38.337Z,13.10
2022-11-09T08:03:06.958Z,13.21
2022-11-09T08:05:35.259Z,13.22
2022-11-09T08:08:06.517Z,13.16
2022-11-09T08:10:35.448Z,13.17
2022-11-09T08:13:14.517Z,13.08
2022-11-09T08:15:42.679Z,13.29
2022-11-09T08:18:13.520Z,13.33
2022-11-09T08:20:41.612Z,13.54
2022-11-09T08:23:14.900Z,13.61
2022-11-09T08:25:43.709Z,13.70
2022-11-09T08:28:14.801Z,13.81
2022-11-09T08:30:44.705Z,13.84
2022-11-09T08:33:13.405Z,13.79
2022-11-09T08:35:41.460Z,13.80
2022-11-09T08:38:09.667Z,13.77
2022-11-09T08:40:37.619Z,13.72
2022-11-09T08:43:08.125Z,13.73
2022-11-09T08:45:37.582Z,13.81
2022-11-09T08:48:06.763Z,13.84
2022-11-09T08:50:36.439Z,13.93
2022-11-09T08:53:05.323Z,14.00
2022-11-09T08:55:33.277Z,14.27
2022-11-09T08:58:03.451Z,14.49
2022-11-09T09:00:31.509Z,14.55
2022-11-09T09:03:03.770Z,14.47
2022-11-09T09:05:32.411Z,14.53
2022-11-09T09:08:01.270Z,14.59
2022-11-09T09:10:29.510Z,14.74
2022-11-09T09:12:57.991Z,15.07
2022-11-09T09:15:25.898Z,14.91
2022-11-09T09:17:53.643Z,14.94
2022-11-09T09:20:21.549Z,15.02
2022-11-09T09:22:49.413Z,15.12
2022-11-09T09:25:17.505Z,15.19
2022-11-09T09:27:45.750Z,15.35
2022-11-09T09:30:14.184Z,15.40
2022-11-09T09:32:42.042Z,15.42
2022-11-09T09:35:10.516Z,15.40
2022-11-09T09:37:39.058Z,15.37
2022-11-09T09:40:07.756Z,15.43
2022-11-09T09:42:37.847Z,15.41
2022-11-09T09:45:14.659Z,15.56
2022-11-09T09:47:59.777Z,15.50
2022-11-09T09:50:50.018Z,15.53
2022-11-09T09:53:32.722Z,15.62
2022-11-09T09:56:12.749Z,15.71
2022-11-09T09:58:58.780Z,15.69
2022-11-09T10:01:37.839Z,15.61
2022-11-09T10:04:38.887Z,15.80
2022-11-09T10:07:14.119Z,15.87
2022-11-09T10:09:42.182Z,15.82
2022-11-09T10:12:24.961Z,15.90
2022-11-09T10:15:08.139Z,16.06
2022-11-09T10:18:13.008Z,16.45
2022-11-09T10:21:06.087Z,16.53
2022-11-09T10:24:09.813Z,16.75
2022-11-09T10:26:48.684Z,16.84
2022-11-09T10:29:24.208Z,16.99
2022-11-09T10:32:02.983Z,16.92
2022-11-09T10:34:42.247Z,17.26
2022-11-09T10:37:16.473Z,17.43
2022-11-09T10:39:52.664Z,17.56
2022-11-09T10:42:39.609Z,17.58
2022-11-09T10:45:29.005Z,17.35
2022-11-09T10:48:31.773Z,17.31
2022-11-09T10:51:42.425Z,17.23
2022-11-09T10:54:35.329Z,17.42
2022-11-09T10:57:24.229Z,17.82
2022-11-09T11:00:16.627Z,17.74
2022-11-09T11:03:17.325Z,17.70
2022-11-09T11:06:14.813Z,17.90
2022-11-09T11:09:01.797Z,17.91
2022-11-09T11:11:48.382Z,17.79
2022-11-09T11:14:43.467Z,17.84
2022-11-09T11:17:36.910Z,17.81
2022-11-09T11:20:37.994Z,17.66
2022-11-09T11:23:26.863Z,17.58
2022-11-09T11:26:38.276Z,17.56
2022-11-09T11:29:32.461Z,17.35
2022-11-09T11:32:20.663Z,17.47
2022-11-09T11:35:16.718Z,17.63
2022-11-09T11:38:16.607Z,17.42
2022-11-09T11:41:34.078Z,17.24
2022-11-09T11:44:41.755Z,17.26
2022-11-09T11:47:46.285Z,17.47
2022-11-09T11:51:06.256Z,17.62
2022-11-09T11:54:14.393Z,17.47
2022-11-09T11:57:29.538Z,17.39
2022-11-09T12:00:20.215Z,17.52
2022-11-09T12:03:32.780Z,17.51
2022-11-09T12:06:48.728Z,17.55
2022-11-09T12:09:53.611Z,17.76
2022-11-09T12:13:02.549Z,17.72
2022-11-09T12:16:14.362Z,17.54
2022-11-09T12:19:09.520Z,17.37
2022-11-09T12:22:04.304Z,17.43
2022-11-09T12:24:57.753Z,17.49
2022-11-09T12:28:11.677Z,17.57
2022-11-09T12:31:24.795Z,17.60
2022-11-09T12:34:39.039Z,17.66
2022-11-09T12:37:32.299Z,17.72
2022-11-09T12:40:29.993Z,17.51
2022-11-09T12:43:40.354Z,17.44
2022-11-09T12:46:34.231Z,17.70
2022-11-09T12:49:34.454Z,17.63
2022-11-09T12:52:28.813Z,17.51
2022-11-09T12:55:18.588Z,17.41
2022-11-09T12:58:04.878Z,17.38
2022-11-09T13:00:56.095Z,17.29
2022-11-09T13:03:55.431Z,17.24
2022-11-09T13:06:42.679Z,17.24
2022-11-09T13:09:44.119Z,17.16
2022-11-09T13:12:38.384Z,17.24
2022-11-09T13:15:31.064Z,17.13
2022-11-09T13:18:48.899Z,17.11
2022-11-09T13:21:37.336Z,16.90
2022-11-09T13:24:29.869Z,16.91
2022-11-09T13:27:37.002Z,17.12
2022-11-09T13:30:28.397Z,17.20
2022-11-09T13:33:36.527Z,16.98
2022-11-09T13:36:23.593Z,17.23
2022-11-09T13:39:42.689Z,17.15
2022-11-09T13:42:34.516Z,16.74
2022-11-09T13:45:26.588Z,16.37
2022-11-09T13:48:40.874Z,16.27
2022-11-09T13:51:36.501Z,16.05
2022-11-09T13:54:32.422Z,16.29
2022-11-09T13:57:22.769Z,16.47
2022-11-09T14:00:23.569Z,16.39
2022-11-09T14:03:20.447Z,16.04
2022-11-09T14:06:11.596Z,16.13
2022-11-09T14:08:59.730Z,16.15
2022-11-09T14:12:42.262Z,16.05
2022-11-09T14:15:46.514Z,16.02
2022-11-09T14:19:03.886Z,16.13
2022-11-09T14:21:53.849Z,16.26
2022-11-09T14:24:41.193Z,16.32
2022-11-09T14:27:28.823Z,16.39
2022-11-09T14:30:22.362Z,16.56
2022-11-09T14:33:26.117Z,16.70
2022-11-09T14:36:13.316Z,16.73
2022-11-09T14:39:03.373Z,16.74
2022-11-09T14:41:50.629Z,16.71
2022-11-09T14:44:42.595Z,16.69
2022-11-09T14:47:32.976Z,16.66
2022-11-09T14:50:22.822Z,16.64
2022-11-09T14:53:16.734Z,16.66
2022-11-09T14:56:10.159Z,16.55
2022-11-09T14:58:58.016Z,16.51
2022-11-09T15:02:07.192Z,16.36
2022-11-09T15:04:56.106Z,16.33
2022-11-09T15:07:48.176Z,16.25
2022-11-09T15:10:35.967Z,16.08
2022-11-09T15:13:41.881Z,15.93
2022-11-09T15:16:31.743Z,15.70
2022-11-09T15:19:21.591Z,15.75
2022-11-09T15:22:37.418Z,15.87
2022-11-09T15:25:34.750Z,15.97
2022-11-09T15:28:27.373Z,16.01
2022-11-09T15:31:16.689Z,15.95
2022-11-09T15:34:22.699Z,15.94
2022-11-09T15:37:49.663Z,15.82
2022-11-09T15:40:36.818Z,15.62
2022-11-09T15:43:24.013Z,15.61
2022-11-09T15:46:21.453Z,15.57
2022-11-09T15:49:25.566Z,15.49
2022-11-09T15:52:12.544Z,15.46
2022-11-09T15:54:58.997Z,15.43
2022-11-09T15:57:45.587Z,15.36
2022-11-09T16:00:32.900Z,15.10
2022-11-09T16:03:21.158Z,14.93
2022-11-09T16:06:10.592Z,14.72
2022-11-09T16:08:56.950Z,14.83
2022-11-09T16:11:43.474Z,14.90
2022-11-09T16:14:32.503Z,14.89
2022-11-09T16:17:19.238Z,14.84
2022-11-09T16:20:08.651Z,14.80
2022-11-09T16:22:55.557Z,14.78
2022-11-09T16:25:42.524Z,14.71
2022-11-09T16:28:29.465Z,14.55
2022-11-09T16:31:16.084Z,14.46
2022-11-09T16:34:04.248Z,14.43
2022-11-09T16:36:56.670Z,14.30
2022-11-09T16:39:45.055Z,14.12
2022-11-09T16:42:33.807Z,14.12
2022-11-09T16:45:33.191Z,13.84
2022-11-09T16:48:23.606Z,13.38
2022-11-09T16:51:10.386Z,13.63
2022-11-09T16:53:58.899Z,13.78
2022-11-09T16:56:48.528Z,13.89
2022-11-09T16:59:38.544Z,13.96
2022-11-09T17:02:28.378Z,13.91
2022-11-09T17:05:15.597Z,13.99
2022-11-09T17:08:02.217Z,13.87
2022-11-09T17:10:48.883Z,13.90
2022-11-09T17:13:36.194Z,13.85
2022-11-09T17:16:23.280Z,13.83
2022-11-09T17:19:10.475Z,13.92
2022-11-09T17:21:57.427Z,13.69
2022-11-09T17:24:44.480Z,13.80
2022-11-09T17:27:31.530Z,13.94
2022-11-09T17:30:18.951Z,14.02
2022-11-09T17:33:09.750Z,14.03
2022-11-09T17:36:02.504Z,13.74
2022-11-09T17:38:48.927Z,13.48
2022-11-09T17:41:42.412Z,13.44
2022-11-09T17:44:29.698Z,13.39
2022-11-09T17:47:16.619Z,13.33
2022-11-09T17:50:05.948Z,13.39
2022-11-09T17:52:52.834Z,13.36
2022-11-09T17:55:39.847Z,13.35
2022-11-09T17:58:29.217Z,13.23
2022-11-09T18:01:21.984Z,13.20
2022-11-09T18:04:12.531Z,13.00
2022-11-09T18:07:02.976Z,12.99
2022-11-09T18:09:53.497Z,12.99
2022-11-09T18:12:46.005Z,12.98
2022-11-09T18:15:39.107Z,13.07
2022-11-09T18:18:29.304Z,13.14
2022-11-09T18:21:19.254Z,13.13
2022-11-09T18:24:07.332Z,13.13
2022-11-09T18:26:55.309Z,13.03
2022-11-09T18:29:43.721Z,12.95
2022-11-09T18:32:32.019Z,13.01
2022-11-09T18:35:19.251Z,13.03
2022-11-09T18:38:13.055Z,13.09
2022-11-09T18:41:03.511Z,13.11
2022-11-09T18:43:52.375Z,13.20
2022-11-09T18:46:39.860Z,13.23
2022-11-09T18:49:27.603Z,13.12
2022-11-09T18:52:16.415Z,12.96
2022-11-09T18:55:05.600Z,12.85
2022-11-09T18:57:53.729Z,12.80
2022-11-09T19:00:42.099Z,12.70
2022-11-09T19:03:30.501Z,12.79
2022-11-09T19:06:20.781Z,12.87
2022-11-09T19:09:30.552Z,12.85
2022-11-09T19:12:17.479Z,12.78
2022-11-09T19:15:05.012Z,12.79
2022-11-09T19:17:53.004Z,12.82
2022-11-09T19:20:40.544Z,12.78
2022-11-09T19:23:33.016Z,12.67
2022-11-09T19:26:22.303Z,12.60
2022-11-09T19:29:12.495Z,12.67
2022-11-09T19:31:59.363Z,12.63
2022-11-09T19:34:46.904Z,12.62
2022-11-09T19:37:34.485Z,12.59
2022-11-09T19:40:22.209Z,12.57
2022-11-09T19:43:09.474Z,12.48
2022-11-09T19:45:57.432Z,12.43
2022-11-09T19:48:47.781Z,12.41
2022-11-09T19:51:35.293Z,12.50
2022-11-09T19:54:22.697Z,12.58
2022-11-09T19:57:09.574Z,12.56
2022-11-09T19:59:57.521Z,12.45
2022-11-09T20:02:44.772Z,12.41
2022-11-09T20:05:35.410Z,12.53
2022-11-09T20:08:23.177Z,12.56
2022-11-09T20:11:37.158Z,12.49
2022-11-09T20:14:23.858Z,12.45
2022-11-09T20:17:12.758Z,12.53
2022-11-09T20:20:01.145Z,12.54
2022-11-09T20:22:51.983Z,12.41
2022-11-09T20:25:42.403Z,12.35
2022-11-09T20:28:30.088Z,12.35
2022-11-09T20:31:22.148Z,12.36
2022-11-09T20:34:08.941Z,12.32
2022-11-09T20:36:55.512Z,12.20
2022-11-09T20:39:43.419Z,12.09
2022-11-09T20:42:30.765Z,12.11
2022-11-09T20:45:17.674Z,12.11
2022-11-09T20:48:14.660Z,12.08
2022-11-09T20:51:16.863Z,12.13
2022-11-09T20:54:07.472Z,12.17
2022-11-09T20:56:54.422Z,12.14
2022-11-09T20:59:41.004Z,12.15
2022-11-09T21:02:27.554Z,12.06
2022-11-09T21:05:13.895Z,11.89
2022-11-09T21:08:01.082Z,11.84
2022-11-09T21:10:47.635Z,11.78
2022-11-09T21:13:34.441Z,11.76
2022-11-09T21:16:23.015Z,11.75
2022-11-09T21:19:09.754Z,11.66
2022-11-09T21:21:59.010Z,11.71
2022-11-09T21:25:04.574Z,11.74
2022-11-09T21:28:09.564Z,11.67
2022-11-09T21:31:01.200Z,11.37
2022-11-09T21:33:47.741Z,11.25
2022-11-09T21:36:34.281Z,11.26
2022-11-09T21:39:20.602Z,11.23
2022-11-09T21:42:07.998Z,11.34
2022-11-09T21:44:54.173Z,11.42
2022-11-09T21:47:40.428Z,11.51
2022-11-09T21:50:26.794Z,11.62
2022-11-09T21:53:12.912Z,11.76
2022-11-09T21:55:59.941Z,11.80
2022-11-09T21:58:48.045Z,11.92
2022-11-09T22:01:35.155Z,11.97
2022-11-09T22:04:21.859Z,12.00
2022-11-09T22:07:09.451Z,12.09
2022-11-09T22:10:09.998Z,12.18
2022-11-09T22:13:15.864Z,12.23
2022-11-09T22:16:06.285Z,12.25
2022-11-09T22:19:12.255Z,12.28
2022-11-09T22:22:01.335Z,12.29
2022-11-09T22:24:48.368Z,12.34
2022-11-09T22:27:35.342Z,12.30
2022-11-09T22:30:25.697Z,12.33
2022-11-09T22:33:12.243Z,12.41
2022-11-09T22:36:01.191Z,12.42
2022-11-09T22:38:47.664Z,12.41
2022-11-09T22:41:33.794Z,12.46
2022-11-09T22:44:20.159Z,12.42
2022-11-09T22:47:06.230Z,12.51
2022-11-09T22:49:52.404Z,12.49
2022-11-09T22:52:39.154Z,12.39
2022-11-09T22:55:25.727Z,12.38
2022-11-09T22:58:12.183Z,12.32
2022-11-09T23:01:07.544Z,12.26
2022-11-09T23:03:54.095Z,12.38
2022-11-09T23:06:40.189Z,12.47
2022-11-09T23:09:26.470Z,12.57
2022-11-09T23:12:12.900Z,12.63
2022-11-09T23:15:05.240Z,12.68
2022-11-09T23:18:14.757Z,12.80
2022-11-09T23:21:00.763Z,12.85
2022-11-09T23:23:47.497Z,12.81
2022-11-09T23:26:34.767Z,13.07
2022-11-09T23:29:21.003Z,12.77
2022-11-09T23:32:07.120Z,12.63
2022-11-09T23:34:53.203Z,12.65
2022-11-09T23:37:39.667Z,12.70
2022-11-09T23:40:27.025Z,12.84
2022-11-09T23:43:13.785Z,12.91
2022-11-09T23:46:10.426Z,12.90
2022-11-09T23:48:56.963Z,12.87
2022-11-09T23:51:42.963Z,12.76
2022-11-09T23:54:29.670Z,12.73
2022-11-09T23:57:15.823Z,12.74
